Time;durP1;ratioP1;P1;durP2;ratioP2;P2;SDS_P1;SDS_P2;PMS_P1;PMS_P2;Temp;Humidity;BMP_temperature;BMP_pressure;BME280_temperature;BME280_humidity;BME280_pressure;Samples;Min_cycle;Max_cycle;Signal;HPM_P1;HPM_P2
2023/09/28 00:00:49;;;;;;;4.67;4.17;;;17.50;99.90;;;;;;5014489;28;20499;-71
2023/09/28 00:03:15;;;;;;;5.43;4.93;;;17.50;99.90;;;;;;5013761;28;20242;-72
2023/09/28 00:05:40;;;;;;;4.90;4.47;;;17.50;99.90;;;;;;5028531;23;20487;-72
2023/09/28 00:08:07;;;;;;;4.60;4.20;;;17.60;99.90;;;;;;5013954;28;20202;-71
2023/09/28 00:10:33;;;;;;;8.37;4.60;;;17.60;99.90;;;;;;5014326;28;20247;-71
2023/09/28 00:12:59;;;;;;;5.03;4.20;;;17.60;99.90;;;;;;5013960;28;20829;-73
2023/09/28 00:15:25;;;;;;;5.10;4.60;;;17.60;99.90;;;;;;5013363;28;20197;-72
2023/09/28 00:17:51;;;;;;;5.87;4.20;;;17.40;99.90;;;;;;5013649;28;20204;-72
2023/09/28 00:20:18;;;;;;;5.67;4.77;;;17.30;99.90;;;;;;5014002;28;20403;-72
2023/09/28 00:22:48;;;;;;;4.83;4.23;;;17.20;99.90;;;;;;5013888;28;20426;-73
2023/09/28 00:25:16;;;;;;;6.37;4.50;;;17.30;99.90;;;;;;5013730;28;20438;-73
2023/09/28 00:27:47;;;;;;;5.40;4.20;;;17.40;99.90;;;;;;5013969;28;20474;-72
2023/09/28 00:30:19;;;;;;;6.30;4.93;;;17.40;99.90;;;;;;5014064;28;20446;-72
2023/09/28 00:33:03;;;;;;;5.77;5.20;;;17.50;99.90;;;;;;5013089;28;20380;-71
2023/09/28 00:35:29;;;;;;;5.40;4.60;;;17.50;99.90;;;;;;5012252;28;20518;-71
2023/09/28 00:37:55;;;;;;;6.10;4.70;;;17.30;99.90;;;;;;5013809;28;20486;-72
2023/09/28 00:40:33;;;;;;;5.27;4.43;;;17.50;99.90;;;;;;5013753;28;20171;-72
2023/09/28 00:43:00;;;;;;;5.63;5.00;;;17.50;99.90;;;;;;5013466;28;20160;-72
2023/09/28 00:45:27;;;;;;;5.47;4.80;;;17.40;99.90;;;;;;5013388;28;20940;-72
2023/09/28 00:48:01;;;;;;;5.43;4.70;;;17.20;99.90;;;;;;5013793;28;20443;-72
2023/09/28 00:50:28;;;;;;;6.90;4.20;;;17.30;99.90;;;;;;5013277;28;20399;-72
2023/09/28 00:52:59;;;;;;;4.93;4.47;;;17.30;99.90;;;;;;5012037;28;20415;-72
2023/09/28 00:55:25;;;;;;;4.93;4.43;;;17.30;99.90;;;;;;5013240;28;20463;-71
2023/09/28 00:57:51;;;;;;;7.23;4.73;;;17.10;99.90;;;;;;5012872;28;20489;-72
2023/09/28 01:02:50;;;;;;;5.63;4.80;;;17.10;99.90;;;;;;5013506;28;20411;-71
2023/09/28 01:05:26;;;;;;;5.03;4.63;;;17.10;99.90;;;;;;5012956;28;20458;-72
2023/09/28 01:07:52;;;;;;;6.90;4.93;;;17.10;99.90;;;;;;5011757;28;20543;-72
2023/09/28 01:10:24;;;;;;;4.23;3.83;;;17.20;99.90;;;;;;5013266;28;20407;-72
2023/09/28 01:12:51;;;;;;;6.43;5.00;;;17.20;99.90;;;;;;5011835;28;20422;-72
2023/09/28 01:15:17;;;;;;;5.70;5.10;;;17.30;99.90;;;;;;5012791;28;20427;-72
2023/09/28 01:17:43;;;;;;;5.00;4.50;;;17.40;99.90;;;;;;5013145;28;20775;-72
2023/09/28 01:20:23;;;;;;;5.20;4.80;;;17.40;99.90;;;;;;5013226;28;20781;-73
2023/09/28 01:22:50;;;;;;;5.97;4.63;;;17.20;99.90;;;;;;5012805;28;20398;-71
2023/09/28 01:25:18;;;;;;;5.37;4.87;;;17.00;99.90;;;;;;5011423;28;20441;-72
2023/09/28 01:27:46;;;;;;;7.67;5.13;;;16.90;99.90;;;;;;5013355;28;20454;-71
2023/09/28 01:30:12;;;;;;;5.27;4.70;;;16.90;99.90;;;;;;5013035;28;20461;-71
2023/09/28 01:32:38;;;;;;;5.10;4.60;;;16.80;99.90;;;;;;5012797;28;20441;-72
2023/09/28 01:35:06;;;;;;;4.80;4.30;;;16.70;99.90;;;;;;5012459;28;20454;-72
2023/09/28 01:37:58;;;;;;;4.17;3.77;;;16.80;99.90;;;;;;5013019;28;20495;-72
2023/09/28 01:40:23;;;;;;;6.10;5.23;;;16.90;99.90;;;;;;5011366;28;20469;-72
2023/09/28 01:42:49;;;;;;;5.40;4.90;;;16.90;99.90;;;;;;5013297;28;20411;-72
2023/09/28 01:45:15;;;;;;;4.77;4.20;;;16.90;99.90;;;;;;5016300;28;20180;-72
2023/09/28 01:47:41;;;;;;;5.17;4.67;;;16.80;99.90;;;;;;5015261;28;20265;-71
2023/09/28 01:50:08;;;;;;;5.30;4.80;;;16.80;99.90;;;;;;5017023;28;20405;-72
2023/09/28 01:52:34;;;;;;;4.33;3.83;;;16.80;99.90;;;;;;5016562;28;20160;-72
2023/09/28 01:54:59;;;;;;;7.63;4.33;;;16.90;99.90;;;;;;5016545;28;20433;-72
2023/09/28 01:57:25;;;;;;;5.00;3.43;;;16.90;99.90;;;;;;5016527;28;20160;-72
2023/09/28 01:59:50;;;;;;;5.37;4.87;;;16.90;99.90;;;;;;5016654;28;20175;-72
2023/09/28 02:02:16;;;;;;;5.37;4.30;;;16.90;99.90;;;;;;5016589;28;20546;-72
2023/09/28 02:04:42;;;;;;;5.10;4.60;;;16.90;99.90;;;;;;5016174;28;20737;-72
2023/09/28 02:07:08;;;;;;;5.03;4.53;;;16.90;99.90;;;;;;5017018;28;20160;-70
2023/09/28 02:09:34;;;;;;;4.97;4.47;;;16.70;99.90;;;;;;5016374;28;20655;-72
2023/09/28 02:12:01;;;;;;;6.23;4.43;;;16.70;99.90;;;;;;5015860;28;20413;-71
2023/09/28 02:14:27;;;;;;;4.27;3.97;;;16.80;99.90;;;;;;5015964;28;20176;-72
2023/09/28 02:16:52;;;;;;;5.67;4.83;;;16.80;99.90;;;;;;5016316;28;20414;-72
2023/09/28 02:19:18;;;;;;;4.30;3.90;;;16.70;99.90;;;;;;5016380;28;20658;-72
2023/09/28 02:21:44;;;;;;;6.00;4.23;;;16.80;99.90;;;;;;5016468;28;20183;-72
2023/09/28 02:24:10;;;;;;;4.60;4.20;;;16.90;99.90;;;;;;5016077;28;20187;-72
2023/09/28 02:26:36;;;;;;;4.93;4.40;;;16.90;99.90;;;;;;5016395;28;20164;-72
2023/09/28 02:29:02;;;;;;;4.73;4.13;;;16.90;99.90;;;;;;5016230;28;20450;-71
2023/09/28 02:31:28;;;;;;;5.90;5.40;;;16.80;99.90;;;;;;5016070;28;20195;-73
2023/09/28 02:33:54;;;;;;;7.80;4.27;;;16.80;99.90;;;;;;5015895;28;20457;-72
2023/09/28 02:36:20;;;;;;;5.20;4.40;;;16.80;99.90;;;;;;5015958;28;20781;-71
2023/09/28 02:38:46;;;;;;;4.67;4.27;;;16.80;99.90;;;;;;5015975;28;20411;-72
2023/09/28 02:41:19;;;;;;;5.20;4.80;;;16.80;99.90;;;;;;5015731;28;20411;-72
2023/09/28 02:43:45;;;;;;;5.70;4.97;;;16.70;99.90;;;;;;5015881;28;20398;-71
2023/09/28 02:46:11;;;;;;;5.40;4.90;;;16.70;99.90;;;;;;5014531;28;20757;-71
2023/09/28 02:48:37;;;;;;;5.90;5.07;;;16.70;99.90;;;;;;5015637;28;20204;-71
2023/09/28 02:51:04;;;;;;;6.83;4.27;;;16.60;99.90;;;;;;5015506;28;20414;-72
2023/09/28 02:53:33;;;;;;;5.40;4.53;;;16.60;99.90;;;;;;5015376;28;20415;-72
2023/09/28 02:55:59;;;;;;;4.73;4.20;;;16.70;99.90;;;;;;5014641;28;20840;-72
2023/09/28 02:58:25;;;;;;;5.60;5.10;;;16.70;99.90;;;;;;5015566;28;20435;-72
2023/09/28 03:00:53;;;;;;;7.13;4.83;;;16.50;99.90;;;;;;5015598;28;20481;-71
2023/09/28 03:03:19;;;;;;;4.40;4.00;;;16.60;99.90;;;;;;5015421;28;20172;-72
2023/09/28 03:05:44;;;;;;;6.03;4.70;;;16.70;99.90;;;;;;5014869;28;20455;-71
2023/09/28 03:08:14;;;;;;;5.07;4.50;;;16.60;99.90;;;;;;5015314;28;20203;-71
2023/09/28 03:10:44;;;;;;;6.60;4.60;;;16.40;99.90;;;;;;5014246;28;20177;-72
2023/09/28 03:13:11;;;;;;;5.40;4.70;;;16.30;99.90;;;;;;5015461;28;20406;-72
2023/09/28 03:15:39;;;;;;;8.43;4.80;;;16.50;99.90;;;;;;5015044;28;20528;-72
2023/09/28 03:18:05;;;;;;;4.27;3.97;;;16.50;99.90;;;;;;5015016;28;20443;-72
2023/09/28 03:20:30;;;;;;;4.60;4.20;;;16.50;99.90;;;;;;5015245;28;20435;-72
2023/09/28 03:22:56;;;;;;;6.80;4.80;;;16.60;99.90;;;;;;5014836;28;20175;-72
2023/09/28 03:25:22;;;;;;;5.40;4.90;;;16.60;99.90;;;;;;5013304;28;20200;-73
2023/09/28 03:27:52;;;;;;;6.10;4.90;;;16.50;99.90;;;;;;5014719;28;20191;-72
2023/09/28 03:30:20;;;;;;;5.07;4.57;;;16.50;99.90;;;;;;5014690;28;20172;-72
2023/09/28 03:32:47;;;;;;;4.87;4.30;;;16.60;99.90;;;;;;5014684;28;20456;-72
2023/09/28 03:35:13;;;;;;;5.10;4.60;;;16.70;99.90;;;;;;5014755;28;20932;-72
2023/09/28 03:37:40;;;;;;;4.40;3.90;;;16.70;99.90;;;;;;5014743;28;20422;-72
2023/09/28 03:40:12;;;;;;;4.30;3.90;;;16.70;99.90;;;;;;5014706;28;20251;-72
2023/09/28 03:42:44;;;;;;;5.07;4.50;;;16.50;99.90;;;;;;5014313;28;20409;-72
2023/09/28 03:45:13;;;;;;;4.83;4.33;;;16.60;99.90;;;;;;5014552;28;20940;-72
2023/09/28 03:47:41;;;;;;;5.73;4.47;;;16.70;99.90;;;;;;5014547;28;20399;-72
2023/09/28 03:50:10;;;;;;;5.83;4.43;;;16.70;99.90;;;;;;5014284;28;20414;-72
2023/09/28 03:52:37;;;;;;;5.00;4.47;;;16.70;99.90;;;;;;5014772;28;20840;-72
2023/09/28 03:55:04;;;;;;;5.63;4.87;;;16.50;99.90;;;;;;5014719;28;20434;-71
2023/09/28 03:57:30;;;;;;;4.50;4.10;;;16.40;99.90;;;;;;5014580;28;20409;-72
2023/09/28 03:59:56;;;;;;;5.97;4.70;;;16.60;99.90;;;;;;5014305;28;20403;-72
2023/09/28 04:02:27;;;;;;;4.63;4.20;;;16.60;99.90;;;;;;5014078;28;20176;-71
2023/09/28 04:04:52;;;;;;;5.70;5.20;;;16.70;99.90;;;;;;5013376;28;20458;-72
2023/09/28 04:07:18;;;;;;;6.10;4.57;;;16.70;99.90;;;;;;5013098;28;20406;-72
2023/09/28 04:09:43;;;;;;;4.50;4.10;;;16.70;99.90;;;;;;5013982;28;20240;-72
2023/09/28 04:12:09;;;;;;;5.30;4.23;;;16.70;99.90;;;;;;5014077;28;20203;-72
2023/09/28 04:14:35;;;;;;;6.27;4.33;;;16.80;99.90;;;;;;5014068;28;20188;-72
2023/09/28 04:17:00;;;;;;;6.00;4.90;;;16.70;99.90;;;;;;5012920;28;20612;-72
2023/09/28 04:19:26;;;;;;;5.63;5.13;;;16.60;99.90;;;;;;5013695;28;20176;-72
2023/09/28 04:21:52;;;;;;;5.10;4.60;;;16.60;99.90;;;;;;5013769;28;20629;-72
2023/09/28 04:24:17;;;;;;;4.93;4.53;;;16.60;99.90;;;;;;5013658;28;20195;-71
2023/09/28 04:26:43;;;;;;;5.50;4.47;;;16.70;99.90;;;;;;5013899;28;20175;-72
2023/09/28 04:29:09;;;;;;;5.37;4.87;;;16.70;99.90;;;;;;5013604;28;20295;-71
2023/09/28 04:31:34;;;;;;;7.80;5.07;;;16.80;99.90;;;;;;5013816;28;20438;-72
2023/09/28 04:34:00;;;;;;;4.63;4.07;;;16.60;99.90;;;;;;5013585;28;20662;-73
2023/09/28 04:36:26;;;;;;;4.80;4.40;;;16.60;99.90;;;;;;5013870;28;20218;-72
2023/09/28 04:38:51;;;;;;;6.50;5.60;;;16.70;99.90;;;;;;5013738;28;20415;-73
2023/09/28 04:41:17;;;;;;;7.00;5.70;;;16.70;99.90;;;;;;5013543;28;20203;-71
2023/09/28 04:43:43;;;;;;;6.10;5.50;;;16.60;99.90;;;;;;5013590;28;20548;-72
2023/09/28 04:46:09;;;;;;;7.23;5.33;;;16.50;99.90;;;;;;5013530;28;20176;-72
2023/09/28 04:48:35;;;;;;;8.90;5.37;;;16.30;99.90;;;;;;5006685;28;20517;-72
2023/09/28 04:51:00;;;;;;;5.90;5.40;;;16.50;99.90;;;;;;5003983;28;20189;-74
2023/09/28 04:53:26;;;;;;;8.83;6.13;;;16.60;99.90;;;;;;5004525;28;20619;-71
2023/09/28 04:55:52;;;;;;;5.27;4.77;;;16.60;99.90;;;;;;5004189;28;20218;-72
2023/09/28 04:58:18;;;;;;;4.97;4.57;;;16.70;99.90;;;;;;5003900;28;20270;-74
2023/09/28 05:00:44;;;;;;;6.53;5.53;;;16.70;99.90;;;;;;5008366;28;20496;-72
2023/09/28 05:03:09;;;;;;;7.00;4.40;;;16.80;99.90;;;;;;5013240;28;20180;-72
2023/09/28 05:05:35;;;;;;;5.47;4.90;;;16.80;99.90;;;;;;5013136;28;20457;-72
2023/09/28 05:08:02;;;;;;;5.67;5.07;;;16.70;99.90;;;;;;5013179;28;20188;-72
2023/09/28 05:10:27;;;;;;;7.30;5.70;;;16.70;99.90;;;;;;5013593;28;20585;-72
2023/09/28 05:12:53;;;;;;;6.03;4.60;;;16.70;99.90;;;;;;5013358;28;20497;-72
2023/09/28 05:15:19;;;;;;;4.90;4.33;;;16.70;99.90;;;;;;5013030;28;20201;-72
2023/09/28 05:17:45;;;;;;;5.53;4.83;;;16.70;99.90;;;;;;5013007;28;20773;-72
2023/09/28 05:20:11;;;;;;;6.20;5.30;;;16.60;99.90;;;;;;5013958;28;20175;-72
2023/09/28 05:22:37;;;;;;;5.47;4.97;;;16.60;99.90;;;;;;5013226;28;20174;-72
2023/09/28 05:25:03;;;;;;;5.83;5.30;;;16.60;99.90;;;;;;5012893;28;20522;-72
2023/09/28 05:27:28;;;;;;;6.37;5.20;;;16.70;99.90;;;;;;5012314;28;20176;-72
2023/09/28 05:29:54;;;;;;;5.90;5.30;;;16.80;99.90;;;;;;5012908;28;20421;-72
2023/09/28 05:32:20;;;;;;;6.17;5.20;;;16.90;99.90;;;;;;5013245;28;20222;-72
2023/09/28 05:34:46;;;;;;;6.33;5.73;;;17.10;99.90;;;;;;5012955;28;20195;-72
2023/09/28 05:37:12;;;;;;;9.50;5.57;;;17.10;99.90;;;;;;5012975;28;20192;-72
2023/09/28 05:39:38;;;;;;;7.33;5.27;;;16.90;99.90;;;;;;5013089;28;20840;-73
2023/09/28 05:42:04;;;;;;;6.63;5.00;;;17.00;99.90;;;;;;5012813;28;20171;-72
2023/09/28 05:44:31;;;;;;;5.57;5.07;;;17.10;99.90;;;;;;5012486;28;20199;-72
2023/09/28 05:46:56;;;;;;;5.10;4.60;;;17.20;99.90;;;;;;5012508;28;20418;-72
2023/09/28 05:49:22;;;;;;;6.40;4.97;;;17.30;99.90;;;;;;5012556;28;20952;-72
2023/09/28 05:51:48;;;;;;;5.47;4.93;;;17.30;99.90;;;;;;5012853;28;20163;-71
2023/09/28 05:54:13;;;;;;;5.40;4.90;;;17.20;99.90;;;;;;5012852;28;20658;-72
2023/09/28 05:56:39;;;;;;;6.00;5.40;;;17.30;99.90;;;;;;5012454;28;20594;-71
2023/09/28 05:59:04;;;;;;;7.33;5.93;;;17.30;99.90;;;;;;5013109;28;20180;-73
2023/09/28 06:01:30;;;;;;;5.30;4.57;;;17.30;99.90;;;;;;5012821;28;20226;-73
2023/09/28 06:03:56;;;;;;;9.67;6.63;;;17.30;99.90;;;;;;5012241;28;20190;-72
2023/09/28 06:06:22;;;;;;;7.13;6.20;;;17.40;99.90;;;;;;5013498;28;20246;-72
2023/09/28 06:08:48;;;;;;;5.47;4.97;;;17.40;99.90;;;;;;5011644;28;20200;-72
2023/09/28 06:11:14;;;;;;;7.03;5.07;;;17.40;99.90;;;;;;5010344;28;20496;-72
2023/09/28 06:13:41;;;;;;;7.40;6.00;;;17.50;99.90;;;;;;4993150;28;20707;-72
2023/09/28 06:16:08;;;;;;;5.60;4.50;;;17.50;99.90;;;;;;5006835;28;20405;-71
2023/09/28 06:18:35;;;;;;;5.67;4.50;;;17.70;99.90;;;;;;5012522;28;20407;-72
2023/09/28 06:21:00;;;;;;;8.17;5.90;;;17.70;99.90;;;;;;5012897;28;20410;-72
2023/09/28 06:23:26;;;;;;;7.00;5.13;;;17.80;99.90;;;;;;5012373;28;20414;-72
2023/09/28 06:25:52;;;;;;;5.40;4.90;;;17.80;99.90;;;;;;5012233;28;20275;-73
2023/09/28 06:28:17;;;;;;;5.10;4.60;;;17.90;99.90;;;;;;5012579;28;20650;-73
2023/09/28 06:30:43;;;;;;;6.90;6.00;;;17.90;99.90;;;;;;5014158;28;20403;-72
2023/09/28 06:33:09;;;;;;;6.30;5.17;;;17.90;99.90;;;;;;5015810;28;20168;-72
2023/09/28 06:35:34;;;;;;;6.53;5.03;;;17.80;99.90;;;;;;5015553;28;20658;-72
2023/09/28 06:38:00;;;;;;;16.33;13.00;;;17.90;99.90;;;;;;5015726;28;20550;-75
2023/09/28 06:40:26;;;;;;;6.70;6.10;;;17.90;99.90;;;;;;5015371;28;20171;-71
2023/09/28 06:42:52;;;;;;;9.13;7.67;;;18.00;99.90;;;;;;5015677;28;20409;-71
2023/09/28 06:45:18;;;;;;;8.23;5.30;;;18.00;99.90;;;;;;5015386;28;20363;-73
2023/09/28 06:47:44;;;;;;;5.70;5.07;;;18.20;99.90;;;;;;5015665;28;20175;-72
2023/09/28 06:50:10;;;;;;;142.30;130.07;;;18.30;99.90;;;;;;5015304;28;20913;-72
2023/09/28 06:52:37;;;;;;;8.80;7.90;;;18.30;99.90;;;;;;5014148;28;20543;-73
2023/09/28 06:55:04;;;;;;;7.10;6.03;;;18.30;99.90;;;;;;5014555;28;20802;-72
2023/09/28 06:57:30;;;;;;;6.90;5.93;;;18.20;99.90;;;;;;5014782;28;20989;-73
2023/09/28 06:59:56;;;;;;;6.53;5.80;;;18.20;99.90;;;;;;5015359;28;20486;-72
2023/09/28 07:02:21;;;;;;;8.07;4.90;;;18.50;99.90;;;;;;5015202;28;20761;-73
2023/09/28 07:04:47;;;;;;;6.60;5.80;;;18.80;99.90;;;;;;5015056;28;20203;-73
2023/09/28 07:07:16;;;;;;;6.90;6.20;;;18.90;99.90;;;;;;5015470;28;20170;-74
2023/09/28 07:09:43;;;;;;;9.13;6.13;;;19.00;99.90;;;;;;5015315;28;20231;-72
2023/09/28 07:12:10;;;;;;;6.27;5.53;;;19.20;99.90;;;;;;5015361;28;20418;-72
2023/09/28 07:14:36;;;;;;;6.80;5.63;;;19.30;99.90;;;;;;5015097;28;20427;-73
2023/09/28 07:17:02;;;;;;;7.00;5.70;;;19.40;99.90;;;;;;5014091;28;20486;-71
2023/09/28 07:19:27;;;;;;;7.03;6.00;;;19.60;99.90;;;;;;5015360;28;20168;-71
2023/09/28 07:21:53;;;;;;;6.87;5.33;;;19.60;99.90;;;;;;5014878;28;20206;-71
2023/09/28 07:24:21;;;;;;;6.73;5.10;;;19.70;99.90;;;;;;5015406;28;20614;-71
2023/09/28 07:26:46;;;;;;;5.83;5.30;;;19.90;99.90;;;;;;5014737;28;20490;-73
2023/09/28 07:29:12;;;;;;;10.50;6.27;;;19.90;99.90;;;;;;5014955;28;20537;-73
2023/09/28 07:31:38;;;;;;;6.17;5.57;;;19.90;99.90;;;;;;5014819;28;20156;-77
2023/09/28 07:34:04;;;;;;;10.00;7.40;;;20.00;99.90;;;;;;5015170;28;20961;-73
2023/09/28 07:36:29;;;;;;;7.70;6.07;;;19.60;99.90;;;;;;5014863;28;20646;-73
2023/09/28 07:38:55;;;;;;;7.37;6.30;;;19.30;99.90;;;;;;5014890;28;20180;-74
2023/09/28 07:41:21;;;;;;;9.87;6.07;;;19.60;99.90;;;;;;5014407;28;20545;-75
2023/09/28 07:43:46;;;;;;;8.33;5.60;;;19.90;99.90;;;;;;5014444;28;20222;-77
2023/09/28 07:46:13;;;;;;;9.87;5.57;;;20.10;99.90;;;;;;5014685;28;20219;-76
2023/09/28 07:48:39;;;;;;;7.27;5.80;;;20.30;99.90;;;;;;5014279;28;20566;-74
2023/09/28 07:51:04;;;;;;;6.30;5.63;;;20.30;99.90;;;;;;5014200;28;20542;-71
2023/09/28 07:53:31;;;;;;;8.17;6.43;;;20.40;99.90;;;;;;5014513;28;20534;-69
2023/09/28 07:55:57;;;;;;;13.10;7.20;;;20.20;99.90;;;;;;5014087;28;20559;-70
2023/09/28 07:58:23;;;;;;;8.23;6.83;;;20.00;99.90;;;;;;5012968;28;20421;-72
2023/09/28 08:00:49;;;;;;;7.10;6.17;;;19.70;99.90;;;;;;5014190;28;20403;-72
2023/09/28 08:03:15;;;;;;;7.57;6.57;;;19.30;99.90;;;;;;5014250;28;20406;-72
2023/09/28 08:05:40;;;;;;;10.73;6.40;;;19.20;99.90;;;;;;5013865;28;20868;-73
2023/09/28 08:08:06;;;;;;;11.30;5.63;;;19.20;99.90;;;;;;5014498;28;20274;-72
2023/09/28 08:10:33;;;;;;;6.90;5.90;;;19.50;99.90;;;;;;5014020;28;20168;-72
2023/09/28 08:12:59;;;;;;;7.30;6.30;;;19.60;99.90;;;;;;5013987;28;20163;-72
2023/09/28 08:15:25;;;;;;;6.67;5.93;;;19.70;99.90;;;;;;5013970;28;20779;-75
2023/09/28 08:17:51;;;;;;;8.77;6.13;;;19.80;99.90;;;;;;5014267;28;20421;-74
2023/09/28 08:20:17;;;;;;;8.00;6.63;;;19.90;99.90;;;;;;5013427;28;20555;-74
2023/09/28 08:22:43;;;;;;;9.43;6.10;;;20.00;99.90;;;;;;5013953;28;20200;-72
2023/09/28 08:25:09;;;;;;;6.70;5.77;;;19.90;99.90;;;;;;5013585;28;20426;-72
2023/09/28 08:27:35;;;;;;;8.30;6.30;;;20.00;99.90;;;;;;5013798;28;20789;-72
2023/09/28 08:30:01;;;;;;;6.60;6.00;;;20.10;99.90;;;;;;5013754;28;20176;-72
2023/09/28 08:32:26;;;;;;;10.47;6.63;;;20.20;99.90;;;;;;5013943;28;20391;-74
2023/09/28 08:34:52;;;;;;;8.10;5.80;;;20.20;99.90;;;;;;5013540;28;20549;-73
2023/09/28 08:37:18;;;;;;;8.67;6.50;;;20.30;99.90;;;;;;5013524;28;20210;-74
2023/09/28 08:39:44;;;;;;;10.50;6.30;;;20.20;99.90;;;;;;5013725;28;20175;-73
2023/09/28 08:42:14;;;;;;;9.77;6.00;;;20.40;99.90;;;;;;5014102;28;20183;-73
2023/09/28 08:44:40;;;;;;;8.97;5.93;;;20.40;99.90;;;;;;5013429;28;20425;-73
2023/09/28 08:47:16;;;;;;;8.97;6.73;;;20.50;99.90;;;;;;5013469;28;20407;-73
2023/09/28 08:49:46;;;;;;;9.50;6.80;;;20.30;99.90;;;;;;5014004;28;20814;-74
2023/09/28 08:52:14;;;;;;;7.23;5.87;;;20.30;99.90;;;;;;5013557;28;20383;-72
2023/09/28 08:54:41;;;;;;;8.20;6.20;;;20.50;99.90;;;;;;5013249;28;20423;-74
2023/09/28 08:57:07;;;;;;;6.67;5.83;;;20.70;99.90;;;;;;5012843;28;20426;-73
2023/09/28 08:59:35;;;;;;;7.67;6.00;;;20.60;99.90;;;;;;5013314;28;20418;-73
2023/09/28 09:02:03;;;;;;;13.80;6.87;;;20.60;99.90;;;;;;5013560;28;20407;-73
2023/09/28 09:04:34;;;;;;;10.83;5.97;;;20.70;99.90;;;;;;5013161;28;20534;-75
2023/09/28 09:07:04;;;;;;;7.23;6.47;;;20.80;99.90;;;;;;5013178;28;20399;-73
2023/09/28 09:09:32;;;;;;;10.87;6.53;;;20.90;99.90;;;;;;5013396;28;20563;-71
2023/09/28 09:12:00;;;;;;;8.40;6.10;;;21.00;99.90;;;;;;5013360;28;20438;-71
2023/09/28 09:14:29;;;;;;;8.40;5.90;;;21.10;99.90;;;;;;5013076;28;20542;-73
2023/09/28 09:16:54;;;;;;;7.13;5.30;;;21.10;99.90;;;;;;5012996;28;20415;-71
2023/09/28 09:19:21;;;;;;;8.37;6.60;;;21.10;99.90;;;;;;5013140;28;20890;-71
2023/09/28 09:21:46;;;;;;;11.17;6.30;;;21.20;99.90;;;;;;5013013;28;20164;-72
2023/09/28 09:24:14;;;;;;;8.30;6.03;;;21.40;99.90;;;;;;5013211;28;20457;-70
2023/09/28 09:26:47;;;;;;;9.10;5.57;;;21.40;99.90;;;;;;5012872;28;20172;-72
2023/09/28 09:29:14;;;;;;;8.87;5.60;;;21.50;99.90;;;;;;5012847;28;20446;-71
2023/09/28 09:31:42;;;;;;;6.80;5.17;;;21.70;99.90;;;;;;5012864;28;20403;-71
2023/09/28 09:34:12;;;;;;;5.83;5.33;;;21.70;99.90;;;;;;5012706;28;20427;-72
2023/09/28 09:36:38;;;;;;;8.23;5.30;;;21.90;99.90;;;;;;5012741;28;20517;-70
2023/09/28 09:39:06;;;;;;;11.50;7.03;;;22.10;99.90;;;;;;5013080;28;20469;-68
2023/09/28 09:41:43;;;;;;;7.53;5.13;;;22.30;99.90;;;;;;5012996;28;20415;-72
2023/09/28 09:44:10;;;;;;;6.60;5.80;;;22.60;99.90;;;;;;5012793;28;20423;-70
2023/09/28 09:46:36;;;;;;;7.30;5.57;;;22.90;99.90;;;;;;5012781;28;20407;-71
2023/09/28 09:49:03;;;;;;;6.90;5.10;;;23.00;99.90;;;;;;5012406;28;20442;-72
2023/09/28 09:51:32;;;;;;;7.23;5.30;;;23.20;99.90;;;;;;5012546;28;20418;-71
2023/09/28 09:53:58;;;;;;;11.00;5.80;;;23.30;99.90;;;;;;5012749;28;20394;-71
2023/09/28 09:56:26;;;;;;;6.40;4.93;;;23.50;99.90;;;;;;5012960;28;20399;-73
2023/09/28 09:58:55;;;;;;;5.10;4.70;;;23.70;99.90;;;;;;5012801;28;20777;-73
2023/09/28 10:01:22;;;;;;;9.10;4.97;;;23.70;99.90;;;;;;5013245;28;20485;-74
2023/09/28 10:03:53;;;;;;;8.40;5.10;;;23.60;99.90;;;;;;5013004;28;20407;-73
2023/09/28 10:06:23;;;;;;;7.63;5.20;;;23.70;99.90;;;;;;5016736;28;20465;-73
2023/09/28 10:08:49;;;;;;;5.20;4.60;;;23.80;99.90;;;;;;5016288;28;20927;-73
2023/09/28 10:11:17;;;;;;;5.73;4.50;;;23.80;99.90;;;;;;5016625;28;20426;-72
2023/09/28 10:13:43;;;;;;;8.53;4.80;;;23.90;99.90;;;;;;5016539;28;20888;-72
2023/09/28 10:16:13;;;;;;;6.53;4.80;;;24.10;99.90;;;;;;5016094;28;20465;-73
2023/09/28 10:18:41;;;;;;;6.80;5.20;;;24.20;99.90;;;;;;5015830;28;20509;-72
2023/09/28 10:21:06;;;;;;;5.13;4.37;;;24.10;99.90;;;;;;5016065;28;20441;-72
2023/09/28 10:23:32;;;;;;;5.83;4.80;;;24.20;99.90;;;;;;5016389;28;20443;-73
2023/09/28 10:25:59;;;;;;;6.23;4.30;;;24.30;99.70;;;;;;5015592;28;20195;-73
2023/09/28 10:28:25;;;;;;;8.57;5.37;;;24.40;99.50;;;;;;5016313;28;20188;-72
2023/09/28 10:31:09;;;;;;;5.00;3.77;;;24.60;99.20;;;;;;5016013;28;20478;-72
2023/09/28 10:33:35;;;;;;;4.43;3.87;;;24.90;98.30;;;;;;5016217;28;20388;-72
2023/09/28 10:36:14;;;;;;;9.07;4.80;;;25.20;97.50;;;;;;5015630;28;20789;-74
2023/09/28 10:38:41;;;;;;;5.73;4.27;;;25.30;97.10;;;;;;5015665;28;20214;-72
2023/09/28 10:41:07;;;;;;;4.80;4.40;;;25.40;97.60;;;;;;5015515;28;20434;-71
2023/09/28 10:43:40;;;;;;;5.90;5.30;;;25.60;96.40;;;;;;5015508;28;20469;-73
2023/09/28 10:46:07;;;;;;;6.63;4.87;;;25.70;96.70;;;;;;5015387;28;20427;-72
2023/09/28 10:48:44;;;;;;;6.50;4.20;;;25.60;96.90;;;;;;5015075;28;20477;-72
2023/09/28 10:51:13;;;;;;;8.93;4.30;;;25.70;96.50;;;;;;5015608;28;20395;-72
2023/09/28 10:53:39;;;;;;;7.43;4.70;;;25.90;95.80;;;;;;5015623;28;20403;-72
2023/09/28 10:56:08;;;;;;;16.83;6.00;;;26.20;96.00;;;;;;5016341;28;20905;-73
2023/09/28 10:58:35;;;;;;;8.50;4.23;;;26.40;95.50;;;;;;5016089;28;20246;-72
2023/09/28 11:01:07;;;;;;;7.30;4.90;;;26.90;93.50;;;;;;5014391;28;20403;-74
2023/09/28 11:03:34;;;;;;;8.20;4.37;;;27.30;93.40;;;;;;5015448;28;20190;-73
2023/09/28 11:06:04;;;;;;;5.80;4.03;;;28.30;91.80;;;;;;5014186;28;20474;-74
2023/09/28 11:08:33;;;;;;;5.80;4.30;;;29.10;88.80;;;;;;5014970;28;20490;-73
2023/09/28 11:11:01;;;;;;;6.40;4.40;;;29.70;84.90;;;;;;5015085;28;20829;-73
2023/09/28 11:13:27;;;;;;;4.60;3.63;;;29.80;84.70;;;;;;5015245;28;20434;-72
2023/09/28 11:15:53;;;;;;;6.53;4.07;;;30.30;81.40;;;;;;5013332;28;20851;-73
2023/09/28 11:18:21;;;;;;;9.90;4.13;;;30.10;79.40;;;;;;5014697;28;20395;-72
2023/09/28 11:20:47;;;;;;;5.63;3.20;;;29.30;78.90;;;;;;5014870;28;20168;-75
2023/09/28 11:23:12;;;;;;;5.50;4.03;;;28.90;79.10;;;;;;5014896;28;20403;-71
2023/09/28 11:25:42;;;;;;;4.87;3.73;;;29.40;78.40;;;;;;5014737;28;20187;-72
2023/09/28 11:28:09;;;;;;;3.80;3.50;;;30.10;74.80;;;;;;5014175;28;20282;-71
2023/09/28 11:30:34;;;;;;;5.97;4.30;;;30.00;74.00;;;;;;5014045;28;20418;-76
2023/09/28 11:33:03;;;;;;;7.63;4.23;;;30.80;72.70;;;;;;5013890;28;20783;-76
2023/09/28 11:35:34;;;;;;;10.53;4.20;;;31.90;69.20;;;;;;5014560;28;20711;-75
2023/09/28 11:38:02;;;;;;;4.07;3.50;;;32.90;65.00;;;;;;5015196;28;20494;-75
2023/09/28 11:40:29;;;;;;;6.30;3.90;;;32.40;63.80;;;;;;5013069;28;20407;-72
2023/09/28 11:42:57;;;;;;;5.10;3.40;;;33.10;61.50;;;;;;5014388;28;20407;-73
2023/09/28 11:45:33;;;;;;;13.93;4.30;;;33.00;59.70;;;;;;5014292;28;20423;-73
2023/09/28 11:48:03;;;;;;;3.60;3.20;;;32.10;59.70;;;;;;5014518;28;20410;-74
2023/09/28 11:50:30;;;;;;;3.77;3.20;;;31.30;60.20;;;;;;5014683;28;20446;-74
2023/09/28 11:52:55;;;;;;;5.00;3.47;;;31.60;61.50;;;;;;5014210;28;20406;-74
2023/09/28 11:55:22;;;;;;;5.27;3.20;;;32.20;58.50;;;;;;5014328;28;20786;-74
2023/09/28 11:57:48;;;;;;;6.13;3.57;;;32.50;58.00;;;;;;5014275;28;20218;-72
2023/09/28 12:00:21;;;;;;;3.97;2.93;;;32.90;57.50;;;;;;5014353;28;20750;-75
2023/09/28 12:02:46;;;;;;;3.60;3.07;;;34.40;55.00;;;;;;5014318;28;20760;-72
2023/09/28 12:05:13;;;;;;;5.27;3.20;;;34.50;54.20;;;;;;5029243;23;20492;-71
2023/09/28 12:07:40;;;;;;;3.60;3.17;;;34.20;53.40;;;;;;5013675;28;20180;-71
2023/09/28 12:10:17;;;;;;;3.13;2.57;;;34.30;52.50;;;;;;5012348;28;20537;-72
2023/09/28 12:12:44;;;;;;;6.60;3.30;;;35.50;51.60;;;;;;5013475;28;20912;-71
2023/09/28 12:15:14;;;;;;;4.10;2.90;;;35.30;50.10;;;;;;5013492;28;20415;-71
2023/09/28 12:17:41;;;;;;;4.87;3.53;;;36.10;49.00;;;;;;4994122;28;20412;-71
2023/09/28 12:20:09;;;;;;;5.00;2.97;;;37.80;47.00;;;;;;4993947;28;20420;-72
2023/09/28 12:22:35;;;;;;;2.93;2.50;;;38.40;43.90;;;;;;4993507;28;20941;-72
2023/09/28 12:25:02;;;;;;;4.20;3.00;;;38.60;43.60;;;;;;4992931;28;20432;-72
2023/09/28 12:27:30;;;;;;;6.07;3.33;;;37.50;43.90;;;;;;5010462;28;20485;-72
2023/09/28 12:29:55;;;;;;;3.00;2.70;;;38.50;43.80;;;;;;5013486;28;20460;-72
2023/09/28 12:32:21;;;;;;;2.40;2.20;;;37.10;43.40;;;;;;5013490;28;20490;-71
2023/09/28 12:34:47;;;;;;;2.70;2.27;;;37.60;42.30;;;;;;5013359;28;20195;-71
2023/09/28 12:37:13;;;;;;;5.43;2.50;;;36.30;42.90;;;;;;4997982;28;20596;-69
2023/09/28 12:39:38;;;;;;;4.03;2.90;;;34.30;45.60;;;;;;4993609;28;20864;-71
2023/09/28 12:42:04;;;;;;;4.43;2.67;;;34.60;47.20;;;;;;4993639;28;20181;-72
2023/09/28 12:44:30;;;;;;;4.63;2.73;;;35.40;45.40;;;;;;4993861;28;20203;-69
2023/09/28 12:46:56;;;;;;;5.17;3.40;;;36.60;45.10;;;;;;5004971;28;20594;-71